Terminal Aerodrome Forecast
Issued by NWS Albuquerque, NM

Home | Current Version | Previous Version | Text Only | Print | Product List | Glossary On
Versions: 1 2 3 4 5 6 7 8 9 10 11 12 13 14
000
FTUS45 KABQ 191721
TAFABQ
TAF
KABQ 191721Z 1918/2018 35005KT P6SM SCT250
     FM192000 VRB06KT P6SM FEW250
     FM201100 35005KT P6SM FEW250=

USA.gov is the U.S. government's official web portal to all federal, state and local government web resources and services.